createdAt,value
2023-01-28T00:01:42.818Z,2.00
2023-01-28T00:04:10.206Z,2.00
2023-01-28T00:06:38.270Z,2.00
2023-01-28T00:09:05.290Z,2.00
2023-01-28T00:11:32.406Z,2.10
2023-01-28T00:13:59.823Z,2.10
2023-01-28T00:16:28.204Z,2.10
2023-01-28T00:18:56.063Z,2.10
2023-01-28T00:21:23.725Z,2.20
2023-01-28T00:23:56.780Z,2.10
2023-01-28T00:26:25.472Z,2.20
2023-01-28T00:28:52.805Z,2.10
2023-01-28T00:31:27.323Z,2.10
2023-01-28T00:33:56.508Z,2.10
2023-01-28T00:36:26.450Z,2.10
2023-01-28T00:39:00.458Z,2.10
2023-01-28T00:41:30.055Z,2.10
2023-01-28T00:43:57.153Z,2.00
2023-01-28T00:46:28.482Z,2.00
2023-01-28T00:48:56.429Z,2.00
2023-01-28T00:51:24.300Z,2.00
2023-01-28T00:53:51.403Z,2.00
2023-01-28T00:56:19.842Z,2.00
2023-01-28T00:58:47.642Z,2.00
2023-01-28T01:01:19.268Z,2.00
2023-01-28T01:03:47.991Z,2.00
2023-01-28T01:06:16.726Z,1.90
2023-01-28T01:08:50.111Z,1.90
2023-01-28T01:11:18.964Z,2.00
2023-01-28T01:13:55.432Z,2.00
2023-01-28T01:16:36.330Z,1.90
2023-01-28T01:19:04.172Z,1.80
2023-01-28T01:21:31.869Z,1.80
2023-01-28T01:23:59.381Z,1.70
2023-01-28T01:26:30.125Z,1.80
2023-01-28T01:28:57.262Z,1.80
2023-01-28T01:31:24.526Z,1.70
2023-01-28T01:33:53.521Z,1.60
2023-01-28T01:36:22.618Z,1.60
2023-01-28T01:38:55.764Z,1.60
2023-01-28T01:41:33.561Z,1.50
2023-01-28T01:44:06.429Z,1.50
2023-01-28T01:46:44.076Z,1.40
2023-01-28T01:49:28.607Z,1.40
2023-01-28T01:52:03.683Z,1.50
2023-01-28T01:54:33.765Z,1.50
2023-01-28T01:57:04.214Z,1.60
2023-01-28T01:59:34.539Z,1.60
2023-01-28T02:02:10.637Z,1.70
2023-01-28T02:04:44.189Z,1.70
2023-01-28T02:07:18.721Z,1.60
2023-01-28T02:09:46.131Z,1.60
2023-01-28T02:12:20.847Z,1.60
2023-01-28T02:15:08.928Z,1.60
2023-01-28T02:17:38.223Z,1.60
2023-01-28T02:20:20.156Z,1.60
2023-01-28T02:23:30.706Z,1.40
2023-01-28T02:26:44.588Z,1.30
2023-01-28T02:29:28.688Z,1.20
2023-01-28T02:32:43.813Z,1.10
2023-01-28T02:35:35.123Z,1.30
2023-01-28T02:38:36.553Z,1.20
2023-01-28T02:41:17.537Z,1.00
2023-01-28T02:43:48.094Z,0.80
2023-01-28T02:46:52.715Z,0.70
2023-01-28T02:49:42.481Z,0.60
2023-01-28T02:53:12.087Z,0.50
2023-01-28T02:56:15.201Z,0.40
2023-01-28T02:59:31.191Z,0.30
2023-01-28T03:02:23.338Z,0.20
2023-01-28T03:05:26.513Z,0.10
2023-01-28T03:07:54.898Z,0.10
2023-01-28T03:10:27.936Z,0.20
2023-01-28T03:13:17.887Z,0.30
2023-01-28T03:16:07.414Z,0.40
2023-01-28T03:19:06.619Z,0.40
2023-01-28T03:21:59.456Z,0.40
2023-01-28T03:24:56.774Z,0.20
2023-01-28T03:28:05.933Z,0.20
2023-01-28T03:31:19.247Z,0.10
2023-01-28T03:34:06.155Z,0.10
2023-01-28T03:36:53.283Z,0.10
2023-01-28T03:39:26.878Z,0.00
2023-01-28T03:42:11.537Z,0.10
2023-01-28T03:44:53.959Z,0.10
2023-01-28T03:47:27.962Z,0.20
2023-01-28T03:49:57.975Z,0.20
2023-01-28T03:52:30.245Z,0.10
2023-01-28T03:54:57.859Z,0.10
2023-01-28T03:57:27.937Z,0.10
2023-01-28T03:59:56.113Z,0.10
2023-01-28T04:02:24.059Z,0.30
2023-01-28T04:04:51.313Z,0.40
2023-01-28T04:07:18.959Z,0.50
2023-01-28T04:09:46.130Z,0.40
2023-01-28T04:12:13.251Z,0.40
2023-01-28T04:14:40.560Z,0.40
2023-01-28T04:17:10.871Z,0.40
2023-01-28T04:19:38.567Z,0.40
2023-01-28T04:22:11.379Z,0.50
2023-01-28T04:24:38.460Z,0.40
2023-01-28T04:27:05.622Z,0.40
2023-01-28T04:29:32.741Z,0.40
2023-01-28T04:31:59.805Z,0.40
2023-01-28T04:34:26.961Z,0.50
2023-01-28T04:36:54.046Z,0.50
2023-01-28T04:39:21.052Z,0.70
2023-01-28T04:41:48.101Z,0.70
2023-01-28T04:44:16.871Z,0.80
2023-01-28T04:46:44.067Z,0.90
2023-01-28T04:49:11.187Z,0.90
2023-01-28T04:51:38.346Z,0.80
2023-01-28T04:54:05.387Z,0.80
2023-01-28T04:56:32.539Z,0.90
2023-01-28T04:58:59.889Z,0.90
2023-01-28T05:01:27.508Z,1.00
2023-01-28T05:03:54.799Z,1.00
2023-01-28T05:06:21.995Z,1.00
2023-01-28T05:08:49.425Z,1.00
2023-01-28T05:11:16.687Z,1.00
2023-01-28T05:13:43.751Z,1.00
2023-01-28T05:16:11.109Z,1.00
2023-01-28T05:18:38.470Z,1.00
2023-01-28T05:21:05.884Z,0.90
2023-01-28T05:23:32.955Z,0.80
2023-01-28T05:26:00.586Z,0.90
2023-01-28T05:28:27.690Z,0.90
2023-01-28T05:30:54.769Z,0.90
2023-01-28T05:33:22.254Z,0.90
2023-01-28T05:35:49.798Z,0.90
2023-01-28T05:38:16.759Z,0.90
2023-01-28T05:40:44.136Z,0.90
2023-01-28T05:43:11.269Z,1.00
2023-01-28T05:45:38.312Z,1.00
2023-01-28T05:48:06.062Z,1.00
2023-01-28T05:50:33.227Z,1.00
2023-01-28T05:53:00.713Z,1.00
2023-01-28T05:55:27.590Z,1.00
2023-01-28T05:57:54.706Z,1.10
2023-01-28T06:00:24.682Z,1.10
2023-01-28T06:02:55.296Z,1.10
2023-01-28T06:05:22.528Z,1.00
2023-01-28T06:07:50.851Z,1.00
2023-01-28T06:10:18.295Z,1.00
2023-01-28T06:12:45.452Z,1.00
2023-01-28T06:15:12.608Z,1.00
2023-01-28T06:17:40.177Z,1.00
2023-01-28T06:20:08.995Z,1.00
2023-01-28T06:22:36.421Z,1.00
2023-01-28T06:25:04.351Z,1.00
2023-01-28T06:27:31.539Z,1.10
2023-01-28T06:29:58.528Z,1.10
2023-01-28T06:32:26.048Z,1.10
2023-01-28T06:34:52.984Z,1.10
2023-01-28T06:37:20.203Z,1.10
2023-01-28T06:39:47.325Z,1.00
2023-01-28T06:42:14.437Z,1.00
2023-01-28T06:44:41.438Z,1.00
2023-01-28T06:47:09.995Z,1.00
2023-01-28T06:49:39.898Z,0.90
2023-01-28T06:52:07.338Z,0.90
2023-01-28T06:54:34.325Z,0.90
2023-01-28T06:57:01.496Z,1.00
2023-01-28T06:59:28.659Z,1.00
2023-01-28T07:01:55.779Z,1.10
2023-01-28T07:04:23.243Z,1.10
2023-01-28T07:06:50.203Z,1.20
2023-01-28T07:09:17.493Z,1.10
2023-01-28T07:11:44.516Z,1.00
2023-01-28T07:14:11.446Z,1.10
2023-01-28T07:16:38.497Z,1.00
2023-01-28T07:19:05.575Z,1.00
2023-01-28T07:21:32.600Z,1.00
2023-01-28T07:23:59.905Z,0.90
2023-01-28T07:26:26.958Z,0.90
2023-01-28T07:28:53.994Z,1.10
2023-01-28T07:31:21.155Z,1.10
2023-01-28T07:33:49.645Z,1.20
2023-01-28T07:36:16.530Z,1.10
2023-01-28T07:38:43.566Z,1.20
2023-01-28T07:41:10.836Z,1.20
2023-01-28T07:43:37.770Z,1.20
2023-01-28T07:46:05.053Z,1.20
2023-01-28T07:48:32.070Z,1.20
2023-01-28T07:51:00.108Z,1.30
2023-01-28T07:53:27.461Z,1.30
2023-01-28T07:56:02.349Z,1.20
2023-01-28T07:58:30.004Z,1.20
2023-01-28T08:00:59.215Z,1.20
2023-01-28T08:03:27.546Z,1.30
2023-01-28T08:05:56.778Z,1.30
2023-01-28T08:08:27.281Z,1.30
2023-01-28T08:10:55.107Z,1.20
2023-01-28T08:13:22.341Z,1.20
2023-01-28T08:15:49.759Z,1.20
2023-01-28T08:18:18.076Z,1.30
2023-01-28T08:20:47.384Z,1.40
2023-01-28T08:23:21.983Z,1.50
2023-01-28T08:25:50.489Z,1.70
2023-01-28T08:28:18.328Z,1.80
2023-01-28T08:30:46.341Z,1.80
2023-01-28T08:33:16.240Z,2.00
2023-01-28T08:35:44.199Z,2.10
2023-01-28T08:38:17.838Z,2.10
2023-01-28T08:40:44.901Z,2.00
2023-01-28T08:43:12.117Z,2.10
2023-01-28T08:45:41.214Z,2.10
2023-01-28T08:48:12.563Z,2.20
2023-01-28T08:50:40.935Z,2.30
2023-01-28T08:53:16.695Z,2.30
2023-01-28T08:55:44.777Z,2.30
2023-01-28T08:58:15.918Z,2.20
2023-01-28T09:00:45.115Z,2.20
2023-01-28T09:03:12.344Z,2.20
2023-01-28T09:05:40.243Z,2.30
2023-01-28T09:08:12.088Z,2.40
2023-01-28T09:10:42.133Z,2.50
2023-01-28T09:13:15.480Z,2.70
2023-01-28T09:15:43.958Z,2.80
2023-01-28T09:18:11.367Z,2.90
2023-01-28T09:20:40.639Z,2.90
2023-01-28T09:23:08.547Z,2.80
2023-01-28T09:25:39.146Z,2.70
2023-01-28T09:28:06.917Z,2.50
2023-01-28T09:30:37.272Z,2.50
2023-01-28T09:33:04.876Z,2.50
2023-01-28T09:35:33.565Z,2.40
2023-01-28T09:38:00.850Z,2.40
2023-01-28T09:40:42.687Z,2.50
2023-01-28T09:43:32.743Z,2.50
2023-01-28T09:46:04.597Z,2.60
2023-01-28T09:48:40.224Z,2.60
2023-01-28T09:51:36.686Z,2.60
2023-01-28T09:54:40.391Z,2.50
2023-01-28T09:57:14.199Z,2.50
2023-01-28T09:59:41.549Z,2.40
2023-01-28T10:02:31.430Z,2.30
2023-01-28T10:05:26.425Z,2.30
2023-01-28T10:08:07.988Z,2.20
2023-01-28T10:10:46.847Z,2.20
2023-01-28T10:14:00.222Z,2.20
2023-01-28T10:16:41.776Z,2.30
2023-01-28T10:19:30.817Z,2.40
2023-01-28T10:22:08.747Z,2.50
2023-01-28T10:24:44.488Z,2.30
2023-01-28T10:27:24.125Z,2.30
2023-01-28T10:29:53.533Z,2.30
2023-01-28T10:32:36.950Z,2.20
2023-01-28T10:35:04.621Z,2.30
2023-01-28T10:37:37.118Z,2.30
2023-01-28T10:40:06.461Z,2.20
2023-01-28T10:42:39.196Z,2.10
2023-01-28T10:45:41.430Z,2.10
2023-01-28T10:48:34.419Z,2.20
2023-01-28T10:51:06.201Z,2.20
2023-01-28T10:53:45.304Z,2.20
2023-01-28T10:56:17.984Z,2.20
2023-01-28T10:59:18.392Z,2.20
2023-01-28T11:02:35.827Z,2.10
2023-01-28T11:05:27.688Z,2.10
2023-01-28T11:08:26.482Z,2.10
2023-01-28T11:10:55.487Z,2.10
2023-01-28T11:13:28.089Z,2.10
2023-01-28T11:16:20.189Z,2.20
2023-01-28T11:19:07.915Z,2.30
2023-01-28T11:21:35.993Z,2.30
2023-01-28T11:24:14.458Z,2.30
2023-01-28T11:26:50.059Z,2.40
2023-01-28T11:29:32.997Z,2.40
2023-01-28T11:32:01.439Z,2.50
2023-01-28T11:34:35.077Z,2.50
2023-01-28T11:37:13.158Z,2.60
2023-01-28T11:39:40.426Z,2.80
2023-01-28T11:42:22.633Z,2.80
2023-01-28T11:44:50.403Z,2.70
2023-01-28T11:47:40.910Z,2.70
2023-01-28T11:50:51.953Z,2.70
2023-01-28T11:53:28.225Z,2.70
2023-01-28T11:56:10.446Z,2.60
2023-01-28T11:58:46.629Z,2.50
2023-01-28T12:01:46.086Z,2.40
2023-01-28T12:05:05.442Z,2.40
2023-01-28T12:07:44.322Z,2.30
2023-01-28T12:10:38.259Z,2.30
2023-01-28T12:13:42.567Z,2.30
2023-01-28T12:16:31.057Z,2.40
2023-01-28T12:19:14.419Z,2.40
2023-01-28T12:22:13.182Z,2.50
2023-01-28T12:25:01.970Z,2.50
2023-01-28T12:28:03.221Z,2.60
2023-01-28T12:31:11.697Z,2.60
2023-01-28T12:34:05.052Z,2.50
2023-01-28T12:37:08.593Z,2.60
2023-01-28T12:39:55.256Z,2.60
2023-01-28T12:42:45.079Z,2.60
2023-01-28T12:45:30.447Z,2.50
2023-01-28T12:48:09.863Z,2.60
2023-01-28T12:50:57.659Z,2.60
2023-01-28T12:53:51.206Z,2.60
2023-01-28T12:56:24.872Z,2.60
2023-01-28T12:59:12.660Z,2.60
2023-01-28T13:01:44.929Z,2.50
2023-01-28T13:04:34.878Z,2.40
2023-01-28T13:07:27.685Z,2.50
2023-01-28T13:10:05.478Z,2.40
2023-01-28T13:12:34.200Z,2.40
2023-01-28T13:15:02.297Z,2.50
2023-01-28T13:17:32.616Z,2.50
2023-01-28T13:20:00.277Z,2.50
2023-01-28T13:22:36.660Z,2.40
2023-01-28T13:25:28.093Z,2.40
2023-01-28T13:28:04.316Z,2.40
2023-01-28T13:30:49.326Z,2.40
2023-01-28T13:33:36.788Z,2.40
2023-01-28T13:36:30.188Z,2.50
2023-01-28T13:39:16.199Z,2.50
2023-01-28T13:41:50.277Z,2.50
2023-01-28T13:44:28.951Z,2.50
2023-01-28T13:47:26.950Z,2.60
2023-01-28T13:50:13.968Z,2.60
2023-01-28T13:52:56.110Z,2.50
2023-01-28T13:55:44.339Z,2.50
2023-01-28T13:58:25.734Z,2.40
2023-01-28T14:01:22.867Z,2.40
2023-01-28T14:04:36.891Z,2.30
2023-01-28T14:07:44.925Z,2.40
2023-01-28T14:10:50.766Z,2.40
2023-01-28T14:13:40.001Z,2.40
2023-01-28T14:16:42.300Z,2.30
2023-01-28T14:19:14.696Z,2.30
2023-01-28T14:21:42.298Z,2.30
2023-01-28T14:24:18.966Z,2.30
2023-01-28T14:27:12.136Z,2.30
2023-01-28T14:30:20.096Z,2.40
2023-01-28T14:32:51.966Z,2.30
2023-01-28T14:35:37.603Z,2.20
2023-01-28T14:38:15.312Z,2.20
2023-01-28T14:40:43.796Z,2.10
2023-01-28T14:43:20.567Z,2.10
2023-01-28T14:46:00.747Z,2.10
2023-01-28T14:49:10.367Z,2.10
2023-01-28T14:51:52.627Z,2.10
2023-01-28T14:55:05.092Z,2.10
2023-01-28T14:57:57.343Z,2.00
2023-01-28T15:00:34.141Z,2.00
2023-01-28T15:03:24.269Z,1.90
2023-01-28T15:06:17.188Z,1.90
2023-01-28T15:08:44.344Z,1.80
2023-01-28T15:11:17.922Z,1.70
2023-01-28T15:13:51.107Z,1.70
2023-01-28T15:16:35.438Z,1.70
2023-01-28T15:19:03.112Z,1.70
2023-01-28T15:21:30.860Z,1.60
2023-01-28T15:24:01.693Z,1.60
2023-01-28T15:26:33.158Z,1.50
2023-01-28T15:29:01.403Z,1.40
2023-01-28T15:31:33.422Z,1.40
2023-01-28T15:34:14.223Z,1.40
2023-01-28T15:36:43.110Z,1.40
2023-01-28T15:39:16.276Z,1.40
2023-01-28T15:41:50.099Z,1.30
2023-01-28T15:44:31.095Z,1.30
2023-01-28T15:47:00.902Z,1.30
2023-01-28T15:49:38.063Z,1.20
2023-01-28T15:52:05.946Z,1.30
2023-01-28T15:54:39.157Z,1.30
2023-01-28T15:57:28.546Z,1.30
2023-01-28T16:00:08.667Z,1.20
2023-01-28T16:02:46.353Z,1.20
2023-01-28T16:05:33.587Z,1.30
2023-01-28T16:08:07.906Z,1.30
2023-01-28T16:10:35.545Z,1.30
2023-01-28T16:13:16.633Z,1.30
2023-01-28T16:15:50.231Z,1.20
2023-01-28T16:19:04.293Z,1.30
2023-01-28T16:21:54.230Z,1.20
2023-01-28T16:24:32.631Z,1.30
2023-01-28T16:27:23.303Z,1.20
2023-01-28T16:29:50.801Z,1.10
2023-01-28T16:32:40.356Z,1.10
2023-01-28T16:35:34.457Z,1.10
2023-01-28T16:38:10.079Z,1.10
2023-01-28T16:40:38.934Z,1.00
2023-01-28T16:43:09.507Z,1.00
2023-01-28T16:45:37.773Z,0.90
2023-01-28T16:48:06.037Z,0.90
2023-01-28T16:50:37.323Z,1.00
2023-01-28T16:53:04.871Z,1.00
2023-01-28T16:55:33.687Z,1.00
2023-01-28T16:58:01.047Z,0.90
2023-01-28T17:00:30.592Z,0.90
2023-01-28T17:02:58.489Z,0.90
2023-01-28T17:05:26.949Z,0.90
2023-01-28T17:07:59.559Z,0.90
2023-01-28T17:10:26.696Z,0.90
2023-01-28T17:12:54.627Z,0.90
2023-01-28T17:15:22.138Z,0.90
2023-01-28T17:17:50.881Z,0.90
2023-01-28T17:20:18.273Z,0.90
2023-01-28T17:22:45.520Z,1.00
2023-01-28T17:25:14.934Z,0.90
2023-01-28T17:27:42.340Z,0.90
2023-01-28T17:30:12.915Z,0.90
2023-01-28T17:32:39.939Z,0.80
2023-01-28T17:35:12.356Z,0.80
2023-01-28T17:37:39.382Z,0.80
2023-01-28T17:40:07.976Z,0.80
2023-01-28T17:42:35.165Z,0.80
2023-01-28T17:45:03.240Z,0.70
2023-01-28T17:47:31.539Z,0.60
2023-01-28T17:49:58.943Z,0.60
2023-01-28T17:52:26.228Z,0.70
2023-01-28T17:54:53.317Z,0.60
2023-01-28T17:57:20.666Z,0.70
2023-01-28T17:59:48.560Z,0.60
2023-01-28T18:02:15.832Z,0.70
2023-01-28T18:04:43.766Z,0.60
2023-01-28T18:07:11.605Z,0.60
2023-01-28T18:09:45.856Z,0.70
2023-01-28T18:12:17.026Z,0.70
2023-01-28T18:14:44.014Z,0.60
2023-01-28T18:17:11.783Z,0.60
2023-01-28T18:19:38.961Z,0.60
2023-01-28T18:22:06.752Z,0.60
2023-01-28T18:24:33.996Z,0.70
2023-01-28T18:27:03.381Z,0.60
2023-01-28T18:29:31.758Z,0.60
2023-01-28T18:32:01.092Z,0.70
2023-01-28T18:34:31.842Z,0.70
2023-01-28T18:36:59.685Z,0.70
2023-01-28T18:39:33.671Z,0.60
2023-01-28T18:42:01.301Z,0.70
2023-01-28T18:44:30.857Z,0.60
2023-01-28T18:46:58.705Z,0.70
2023-01-28T18:49:26.185Z,0.60
2023-01-28T18:51:54.270Z,0.60
2023-01-28T18:54:22.807Z,0.70
2023-01-28T18:56:50.231Z,0.70
2023-01-28T18:59:17.418Z,0.60
2023-01-28T19:01:48.174Z,0.60
2023-01-28T19:04:16.248Z,0.50
2023-01-28T19:06:43.835Z,0.50
2023-01-28T19:09:13.828Z,0.40
2023-01-28T19:11:41.663Z,0.50
2023-01-28T19:14:15.642Z,0.60
2023-01-28T19:16:43.578Z,0.60
2023-01-28T19:19:11.161Z,0.50
2023-01-28T19:21:38.765Z,0.60
2023-01-28T19:24:09.886Z,0.60
2023-01-28T19:26:39.510Z,0.50
2023-01-28T19:29:09.746Z,0.50
2023-01-28T19:31:38.559Z,0.40
2023-01-28T19:34:06.315Z,0.40
2023-01-28T19:36:35.485Z,0.40
2023-01-28T19:39:08.482Z,0.40
2023-01-28T19:41:36.910Z,0.40
2023-01-28T19:44:05.465Z,0.30
2023-01-28T19:46:34.440Z,0.10
2023-01-28T19:49:01.869Z,0.10
2023-01-28T19:51:29.007Z,0.10
2023-01-28T19:53:56.630Z,0.10
2023-01-28T19:56:27.451Z,0.10
2023-01-28T19:58:55.436Z,0.10
2023-01-28T20:01:28.634Z,0.20
2023-01-28T20:04:00.943Z,0.20
2023-01-28T20:06:31.129Z,0.20
2023-01-28T20:09:06.504Z,0.20
2023-01-28T20:11:34.973Z,0.20
2023-01-28T20:14:02.193Z,0.00
2023-01-28T20:16:32.715Z,0.10
2023-01-28T20:19:07.449Z,0.10
2023-01-28T20:21:36.334Z,0.10
2023-01-28T20:24:05.042Z,0.10
2023-01-28T20:26:38.489Z,0.20
2023-01-28T20:29:13.034Z,0.10
2023-01-28T20:31:42.458Z,0.00
2023-01-28T20:34:16.125Z,0.10
2023-01-28T20:36:43.880Z,0.10
2023-01-28T20:39:12.327Z,0.10
2023-01-28T20:41:39.346Z,0.20
2023-01-28T20:44:07.243Z,0.30
2023-01-28T20:46:36.858Z,0.30
2023-01-28T20:49:06.519Z,0.30
2023-01-28T20:51:35.926Z,0.30
2023-01-28T20:54:04.537Z,0.30
2023-01-28T20:56:32.016Z,0.30
2023-01-28T20:59:03.482Z,0.40
2023-01-28T21:01:35.053Z,0.30
2023-01-28T21:04:04.059Z,0.30
2023-01-28T21:06:31.769Z,0.30
2023-01-28T21:08:59.917Z,0.30
2023-01-28T21:11:27.649Z,0.40
2023-01-28T21:13:56.178Z,0.40
2023-01-28T21:16:24.738Z,0.50
2023-01-28T21:18:52.438Z,0.50
2023-01-28T21:21:26.044Z,0.50
2023-01-28T21:23:58.112Z,0.50
2023-01-28T21:26:26.125Z,0.60
2023-01-28T21:28:53.300Z,0.60
2023-01-28T21:31:25.545Z,0.60
2023-01-28T21:33:56.521Z,0.60
2023-01-28T21:36:25.784Z,0.50
2023-01-28T21:38:56.520Z,0.50
2023-01-28T21:41:24.812Z,0.40
2023-01-28T21:43:57.685Z,0.30
2023-01-28T21:46:30.926Z,0.40
2023-01-28T21:49:01.633Z,0.30
2023-01-28T21:51:35.701Z,0.30
2023-01-28T21:54:04.276Z,0.30
2023-01-28T21:56:31.373Z,0.30
2023-01-28T21:59:17.361Z,0.40
2023-01-28T22:01:45.078Z,0.40
2023-01-28T22:04:13.290Z,0.50
2023-01-28T22:06:42.495Z,0.50
2023-01-28T22:09:14.225Z,0.50
2023-01-28T22:11:44.071Z,0.50
2023-01-28T22:14:12.736Z,0.50
2023-01-28T22:16:40.161Z,0.50
2023-01-28T22:19:07.441Z,0.50
2023-01-28T22:21:41.100Z,0.60
2023-01-28T22:24:24.632Z,0.50
2023-01-28T22:26:54.011Z,0.50
2023-01-28T22:29:23.092Z,0.40
2023-01-28T22:31:53.470Z,0.30
2023-01-28T22:34:22.195Z,0.40
2023-01-28T22:36:51.027Z,0.40
2023-01-28T22:39:19.087Z,0.50
2023-01-28T22:41:46.773Z,0.40
2023-01-28T22:44:14.602Z,0.40
2023-01-28T22:46:41.988Z,0.50
2023-01-28T22:49:14.864Z,0.50
2023-01-28T22:51:42.903Z,0.60
2023-01-28T22:54:12.171Z,0.50
2023-01-28T22:56:40.541Z,0.50
2023-01-28T22:59:10.121Z,0.50
2023-01-28T23:01:37.680Z,0.60
2023-01-28T23:04:05.237Z,0.50
2023-01-28T23:06:34.225Z,0.40
2023-01-28T23:09:01.241Z,0.40
2023-01-28T23:11:28.798Z,0.50
2023-01-28T23:14:22.833Z,0.50
2023-01-28T23:17:09.441Z,0.50
2023-01-28T23:19:56.820Z,0.50
2023-01-28T23:22:50.793Z,0.50
2023-01-28T23:25:20.548Z,0.50
2023-01-28T23:27:48.402Z,0.40
2023-01-28T23:30:16.529Z,0.40
2023-01-28T23:32:48.882Z,0.50
2023-01-28T23:35:17.339Z,0.50
2023-01-28T23:37:44.586Z,0.50
2023-01-28T23:40:13.815Z,0.40
2023-01-28T23:42:41.974Z,0.40
2023-01-28T23:45:10.550Z,0.40
2023-01-28T23:47:38.427Z,0.40
2023-01-28T23:50:05.949Z,0.40
2023-01-28T23:52:33.022Z,0.40
2023-01-28T23:55:00.039Z,0.40
2023-01-28T23:57:27.211Z,0.50
2023-01-28T23:59:54.137Z,0.40
